sensor_id;sensor_type;location;lat;lon;timestamp;temperature;humidity
19728;DHT22;10015;52.530;13.390;2022-09-01T00:00:25;18.60;99.90
19728;DHT22;10015;52.530;13.390;2022-09-01T00:02:55;18.60;99.90
19728;DHT22;10015;52.530;13.390;2022-09-01T00:05:21;18.60;99.90
19728;DHT22;10015;52.530;13.390;2022-09-01T00:07:47;18.60;99.90
19728;DHT22;10015;52.530;13.390;2022-09-01T00:10:14;18.70;99.90
19728;DHT22;10015;52.530;13.390;2022-09-01T00:12:40;18.60;99.90
19728;DHT22;10015;52.530;13.390;2022-09-01T00:15:08;18.60;99.90
19728;DHT22;10015;52.530;13.390;2022-09-01T00:17:34;18.60;99.90
19728;DHT22;10015;52.530;13.390;2022-09-01T00:20:00;18.60;99.90
19728;DHT22;10015;52.530;13.390;2022-09-01T00:22:26;18.60;99.90
19728;DHT22;10015;52.530;13.390;2022-09-01T00:24:54;18.70;99.90
19728;DHT22;10015;52.530;13.390;2022-09-01T00:27:20;18.70;99.90
19728;DHT22;10015;52.530;13.390;2022-09-01T00:29:46;18.70;99.90
19728;DHT22;10015;52.530;13.390;2022-09-01T00:32:12;18.70;99.90
19728;DHT22;10015;52.530;13.390;2022-09-01T00:34:39;18.70;99.90
19728;DHT22;10015;52.530;13.390;2022-09-01T00:37:05;18.70;99.90
19728;DHT22;10015;52.530;13.390;2022-09-01T00:39:32;18.70;99.90
19728;DHT22;10015;52.530;13.390;2022-09-01T00:41:57;18.70;99.90
19728;DHT22;10015;52.530;13.390;2022-09-01T00:44:24;18.70;99.90
19728;DHT22;10015;52.530;13.390;2022-09-01T00:46:54;18.60;99.90
19728;DHT22;10015;52.530;13.390;2022-09-01T00:49:30;18.60;99.90
19728;DHT22;10015;52.530;13.390;2022-09-01T00:52:10;18.60;99.90
19728;DHT22;10015;52.530;13.390;2022-09-01T00:54:45;18.60;99.90
19728;DHT22;10015;52.530;13.390;2022-09-01T00:57:13;18.60;99.90
19728;DHT22;10015;52.530;13.390;2022-09-01T00:59:46;18.60;99.90
19728;DHT22;10015;52.530;13.390;2022-09-01T01:02:12;18.60;99.90
19728;DHT22;10015;52.530;13.390;2022-09-01T01:04:39;18.60;99.90
19728;DHT22;10015;52.530;13.390;2022-09-01T01:07:05;18.60;99.90
19728;DHT22;10015;52.530;13.390;2022-09-01T01:09:36;18.60;99.90
19728;DHT22;10015;52.530;13.390;2022-09-01T01:12:04;18.60;99.90
19728;DHT22;10015;52.530;13.390;2022-09-01T01:14:30;18.60;99.90
19728;DHT22;10015;52.530;13.390;2022-09-01T01:16:58;18.60;99.90
19728;DHT22;10015;52.530;13.390;2022-09-01T01:19:41;18.50;99.90
19728;DHT22;10015;52.530;13.390;2022-09-01T01:22:38;18.50;99.90
19728;DHT22;10015;52.530;13.390;2022-09-01T01:25:25;18.40;99.90
19728;DHT22;10015;52.530;13.390;2022-09-01T01:27:51;18.30;99.90
19728;DHT22;10015;52.530;13.390;2022-09-01T01:30:28;18.40;99.90
19728;DHT22;10015;52.530;13.390;2022-09-01T01:32:58;18.40;99.90
19728;DHT22;10015;52.530;13.390;2022-09-01T01:35:25;18.30;99.90
19728;DHT22;10015;52.530;13.390;2022-09-01T01:37:51;18.30;99.90
19728;DHT22;10015;52.530;13.390;2022-09-01T01:40:19;18.20;99.90
19728;DHT22;10015;52.530;13.390;2022-09-01T01:42:51;18.20;99.90
19728;DHT22;10015;52.530;13.390;2022-09-01T01:45:20;18.10;99.90
19728;DHT22;10015;52.530;13.390;2022-09-01T01:47:48;18.10;99.90
19728;DHT22;10015;52.530;13.390;2022-09-01T01:50:29;18.10;99.90
19728;DHT22;10015;52.530;13.390;2022-09-01T01:52:59;18.10;99.90
19728;DHT22;10015;52.530;13.390;2022-09-01T01:55:27;18.10;99.90
19728;DHT22;10015;52.530;13.390;2022-09-01T01:57:58;18.10;99.90
19728;DHT22;10015;52.530;13.390;2022-09-01T02:00:30;18.10;99.90
19728;DHT22;10015;52.530;13.390;2022-09-01T02:02:59;18.10;99.90
19728;DHT22;10015;52.530;13.390;2022-09-01T02:05:28;18.10;99.90
19728;DHT22;10015;52.530;13.390;2022-09-01T02:07:56;18.00;99.90
19728;DHT22;10015;52.530;13.390;2022-09-01T02:10:28;18.00;99.90
19728;DHT22;10015;52.530;13.390;2022-09-01T02:12:56;18.00;99.90
19728;DHT22;10015;52.530;13.390;2022-09-01T02:15:30;18.10;99.90
19728;DHT22;10015;52.530;13.390;2022-09-01T02:17:59;18.00;99.90
19728;DHT22;10015;52.530;13.390;2022-09-01T02:20:26;18.00;99.90
19728;DHT22;10015;52.530;13.390;2022-09-01T02:22:58;18.00;99.90
19728;DHT22;10015;52.530;13.390;2022-09-01T02:25:29;18.00;99.90
19728;DHT22;10015;52.530;13.390;2022-09-01T02:27:56;18.00;99.90
19728;DHT22;10015;52.530;13.390;2022-09-01T02:30:22;18.00;99.90
19728;DHT22;10015;52.530;13.390;2022-09-01T02:32:49;17.90;99.90
19728;DHT22;10015;52.530;13.390;2022-09-01T02:35:18;17.90;99.90
19728;DHT22;10015;52.530;13.390;2022-09-01T02:37:46;18.00;99.90
19728;DHT22;10015;52.530;13.390;2022-09-01T02:40:16;18.00;99.90
19728;DHT22;10015;52.530;13.390;2022-09-01T02:42:43;17.90;99.90
19728;DHT22;10015;52.530;13.390;2022-09-01T02:45:11;17.80;99.90
19728;DHT22;10015;52.530;13.390;2022-09-01T02:47:41;17.80;99.90
19728;DHT22;10015;52.530;13.390;2022-09-01T02:50:08;17.80;99.90
19728;DHT22;10015;52.530;13.390;2022-09-01T02:52:39;17.70;99.90
19728;DHT22;10015;52.530;13.390;2022-09-01T02:55:07;17.70;99.90
19728;DHT22;10015;52.530;13.390;2022-09-01T02:57:33;17.60;99.90
19728;DHT22;10015;52.530;13.390;2022-09-01T03:00:00;17.70;99.90
19728;DHT22;10015;52.530;13.390;2022-09-01T03:02:29;17.70;99.90
19728;DHT22;10015;52.530;13.390;2022-09-01T03:04:56;17.80;99.90
19728;DHT22;10015;52.530;13.390;2022-09-01T03:07:22;17.70;99.90
19728;DHT22;10015;52.530;13.390;2022-09-01T03:09:49;17.70;99.90
19728;DHT22;10015;52.530;13.390;2022-09-01T03:12:15;17.60;99.90
19728;DHT22;10015;52.530;13.390;2022-09-01T03:14:40;17.60;99.90
19728;DHT22;10015;52.530;13.390;2022-09-01T03:17:06;17.60;99.90
19728;DHT22;10015;52.530;13.390;2022-09-01T03:19:33;17.50;99.90
19728;DHT22;10015;52.530;13.390;2022-09-01T03:22:04;17.60;99.90
19728;DHT22;10015;52.530;13.390;2022-09-01T03:24:31;17.50;99.90
19728;DHT22;10015;52.530;13.390;2022-09-01T03:26:57;17.50;99.90
19728;DHT22;10015;52.530;13.390;2022-09-01T03:29:23;17.50;99.90
19728;DHT22;10015;52.530;13.390;2022-09-01T03:31:49;17.50;99.90
19728;DHT22;10015;52.530;13.390;2022-09-01T03:34:16;17.40;99.90
19728;DHT22;10015;52.530;13.390;2022-09-01T03:36:49;17.40;99.90
19728;DHT22;10015;52.530;13.390;2022-09-01T03:39:18;17.40;99.90
19728;DHT22;10015;52.530;13.390;2022-09-01T03:41:44;17.40;99.90
19728;DHT22;10015;52.530;13.390;2022-09-01T03:44:11;17.30;99.90
19728;DHT22;10015;52.530;13.390;2022-09-01T03:46:38;17.20;99.90
19728;DHT22;10015;52.530;13.390;2022-09-01T03:49:05;17.20;99.90
19728;DHT22;10015;52.530;13.390;2022-09-01T03:51:35;17.20;99.90
19728;DHT22;10015;52.530;13.390;2022-09-01T03:54:04;17.10;99.90
19728;DHT22;10015;52.530;13.390;2022-09-01T03:56:30;17.00;99.90
19728;DHT22;10015;52.530;13.390;2022-09-01T03:58:58;17.00;99.90
19728;DHT22;10015;52.530;13.390;2022-09-01T04:01:26;17.00;99.90
19728;DHT22;10015;52.530;13.390;2022-09-01T04:03:54;16.90;99.90
19728;DHT22;10015;52.530;13.390;2022-09-01T04:06:24;16.90;99.90
19728;DHT22;10015;52.530;13.390;2022-09-01T04:08:51;16.90;99.90
19728;DHT22;10015;52.530;13.390;2022-09-01T04:11:27;16.80;99.90
19728;DHT22;10015;52.530;13.390;2022-09-01T04:13:54;16.80;99.90
19728;DHT22;10015;52.530;13.390;2022-09-01T04:16:29;16.80;99.90
19728;DHT22;10015;52.530;13.390;2022-09-01T04:19:15;16.80;99.90
19728;DHT22;10015;52.530;13.390;2022-09-01T04:21:47;16.70;99.90
19728;DHT22;10015;52.530;13.390;2022-09-01T04:24:15;16.70;99.90
19728;DHT22;10015;52.530;13.390;2022-09-01T04:26:43;16.70;99.90
19728;DHT22;10015;52.530;13.390;2022-09-01T04:29:13;16.60;99.90
19728;DHT22;10015;52.530;13.390;2022-09-01T04:31:39;16.70;99.90
19728;DHT22;10015;52.530;13.390;2022-09-01T04:34:07;16.70;99.90
19728;DHT22;10015;52.530;13.390;2022-09-01T04:36:40;16.60;99.90
19728;DHT22;10015;52.530;13.390;2022-09-01T04:39:07;16.60;99.90
19728;DHT22;10015;52.530;13.390;2022-09-01T04:41:38;16.70;99.90
19728;DHT22;10015;52.530;13.390;2022-09-01T04:44:06;16.70;99.90
19728;DHT22;10015;52.530;13.390;2022-09-01T04:46:40;16.70;99.90
19728;DHT22;10015;52.530;13.390;2022-09-01T04:49:08;16.80;99.90
19728;DHT22;10015;52.530;13.390;2022-09-01T04:51:40;16.80;99.90
19728;DHT22;10015;52.530;13.390;2022-09-01T04:54:06;16.70;99.90
19728;DHT22;10015;52.530;13.390;2022-09-01T04:56:37;16.70;99.90
19728;DHT22;10015;52.530;13.390;2022-09-01T04:59:11;16.70;99.90
19728;DHT22;10015;52.530;13.390;2022-09-01T05:01:39;16.70;99.90
19728;DHT22;10015;52.530;13.390;2022-09-01T05:04:10;16.60;99.90
19728;DHT22;10015;52.530;13.390;2022-09-01T05:06:41;16.60;99.90
19728;DHT22;10015;52.530;13.390;2022-09-01T05:09:09;16.70;99.90
19728;DHT22;10015;52.530;13.390;2022-09-01T05:11:59;16.80;99.90
19728;DHT22;10015;52.530;13.390;2022-09-01T05:14:37;17.00;99.90
19728;DHT22;10015;52.530;13.390;2022-09-01T05:17:04;17.00;99.90
19728;DHT22;10015;52.530;13.390;2022-09-01T05:19:40;17.00;99.90
19728;DHT22;10015;52.530;13.390;2022-09-01T05:22:08;17.00;99.90
19728;DHT22;10015;52.530;13.390;2022-09-01T05:24:37;17.20;99.90
19728;DHT22;10015;52.530;13.390;2022-09-01T05:27:05;17.40;99.90
19728;DHT22;10015;52.530;13.390;2022-09-01T05:29:34;17.40;99.90
19728;DHT22;10015;52.530;13.390;2022-09-01T05:32:03;17.40;99.90
19728;DHT22;10015;52.530;13.390;2022-09-01T05:34:38;17.40;99.90
19728;DHT22;10015;52.530;13.390;2022-09-01T05:37:07;17.50;99.90
19728;DHT22;10015;52.530;13.390;2022-09-01T05:39:36;17.50;99.90
19728;DHT22;10015;52.530;13.390;2022-09-01T05:42:04;17.40;99.90
19728;DHT22;10015;52.530;13.390;2022-09-01T05:44:35;17.40;99.90
19728;DHT22;10015;52.530;13.390;2022-09-01T05:47:02;17.40;99.90
19728;DHT22;10015;52.530;13.390;2022-09-01T05:49:33;17.50;99.90
19728;DHT22;10015;52.530;13.390;2022-09-01T05:52:02;17.50;99.90
19728;DHT22;10015;52.530;13.390;2022-09-01T05:54:30;17.50;99.90
19728;DHT22;10015;52.530;13.390;2022-09-01T05:56:57;17.60;99.90
19728;DHT22;10015;52.530;13.390;2022-09-01T05:59:27;17.60;99.90
19728;DHT22;10015;52.530;13.390;2022-09-01T06:02:03;17.70;99.90
19728;DHT22;10015;52.530;13.390;2022-09-01T06:04:34;17.70;99.90
19728;DHT22;10015;52.530;13.390;2022-09-01T06:07:07;17.90;99.90
19728;DHT22;10015;52.530;13.390;2022-09-01T06:09:39;17.90;99.90
19728;DHT22;10015;52.530;13.390;2022-09-01T06:12:06;18.10;99.90
19728;DHT22;10015;52.530;13.390;2022-09-01T06:14:43;18.20;99.90
19728;DHT22;10015;52.530;13.390;2022-09-01T06:17:10;18.30;99.90
19728;DHT22;10015;52.530;13.390;2022-09-01T06:19:37;18.30;99.90
19728;DHT22;10015;52.530;13.390;2022-09-01T06:22:05;18.40;99.90
19728;DHT22;10015;52.530;13.390;2022-09-01T06:24:32;18.50;99.90
19728;DHT22;10015;52.530;13.390;2022-09-01T06:26:58;18.50;99.90
19728;DHT22;10015;52.530;13.390;2022-09-01T06:29:24;18.40;99.90
19728;DHT22;10015;52.530;13.390;2022-09-01T06:31:51;18.40;99.90
19728;DHT22;10015;52.530;13.390;2022-09-01T06:34:18;18.30;99.90
19728;DHT22;10015;52.530;13.390;2022-09-01T06:36:46;18.40;99.90
19728;DHT22;10015;52.530;13.390;2022-09-01T06:39:15;18.40;99.90
19728;DHT22;10015;52.530;13.390;2022-09-01T06:41:51;18.40;99.90
19728;DHT22;10015;52.530;13.390;2022-09-01T06:44:28;18.50;99.90
19728;DHT22;10015;52.530;13.390;2022-09-01T06:47:04;18.60;99.90
19728;DHT22;10015;52.530;13.390;2022-09-01T06:49:35;18.80;99.90
19728;DHT22;10015;52.530;13.390;2022-09-01T06:52:08;18.90;99.90
19728;DHT22;10015;52.530;13.390;2022-09-01T06:54:34;18.90;99.90
19728;DHT22;10015;52.530;13.390;2022-09-01T06:57:08;19.00;99.90
19728;DHT22;10015;52.530;13.390;2022-09-01T06:59:34;19.00;99.90
19728;DHT22;10015;52.530;13.390;2022-09-01T07:02:02;19.20;99.90
19728;DHT22;10015;52.530;13.390;2022-09-01T07:05:06;19.20;99.90
19728;DHT22;10015;52.530;13.390;2022-09-01T07:07:33;19.30;99.90
19728;DHT22;10015;52.530;13.390;2022-09-01T07:10:43;19.40;99.90
19728;DHT22;10015;52.530;13.390;2022-09-01T07:13:21;19.60;99.90
19728;DHT22;10015;52.530;13.390;2022-09-01T07:15:51;19.80;99.90
19728;DHT22;10015;52.530;13.390;2022-09-01T07:18:21;20.10;99.90
19728;DHT22;10015;52.530;13.390;2022-09-01T07:20:51;20.50;99.90
19728;DHT22;10015;52.530;13.390;2022-09-01T07:23:18;20.90;99.90
19728;DHT22;10015;52.530;13.390;2022-09-01T07:25:47;21.20;99.90
19728;DHT22;10015;52.530;13.390;2022-09-01T07:28:28;21.40;99.90
19728;DHT22;10015;52.530;13.390;2022-09-01T07:30:55;21.70;99.90
19728;DHT22;10015;52.530;13.390;2022-09-01T07:33:22;22.10;99.90
19728;DHT22;10015;52.530;13.390;2022-09-01T07:35:54;22.00;99.90
19728;DHT22;10015;52.530;13.390;2022-09-01T07:38:23;22.10;99.90
19728;DHT22;10015;52.530;13.390;2022-09-01T07:40:50;22.30;99.90
19728;DHT22;10015;52.530;13.390;2022-09-01T07:43:41;22.60;99.90
19728;DHT22;10015;52.530;13.390;2022-09-01T07:46:28;22.90;99.90
19728;DHT22;10015;52.530;13.390;2022-09-01T07:48:57;23.10;99.90
19728;DHT22;10015;52.530;13.390;2022-09-01T07:51:25;23.20;99.90
19728;DHT22;10015;52.530;13.390;2022-09-01T07:53:52;23.30;99.90
19728;DHT22;10015;52.530;13.390;2022-09-01T07:56:20;23.30;99.90
19728;DHT22;10015;52.530;13.390;2022-09-01T07:58:50;23.20;99.90
19728;DHT22;10015;52.530;13.390;2022-09-01T08:01:20;23.30;99.90
19728;DHT22;10015;52.530;13.390;2022-09-01T08:03:51;23.60;99.90
19728;DHT22;10015;52.530;13.390;2022-09-01T08:06:20;23.90;99.90
19728;DHT22;10015;52.530;13.390;2022-09-01T08:08:48;24.10;99.90
19728;DHT22;10015;52.530;13.390;2022-09-01T08:11:22;24.20;99.90
19728;DHT22;10015;52.530;13.390;2022-09-01T08:13:52;24.50;99.90
19728;DHT22;10015;52.530;13.390;2022-09-01T08:16:19;24.50;99.90
19728;DHT22;10015;52.530;13.390;2022-09-01T08:18:47;24.60;99.90
19728;DHT22;10015;52.530;13.390;2022-09-01T08:21:23;24.60;99.90
19728;DHT22;10015;52.530;13.390;2022-09-01T08:24:00;24.70;99.90
19728;DHT22;10015;52.530;13.390;2022-09-01T08:26:27;24.70;99.90
19728;DHT22;10015;52.530;13.390;2022-09-01T08:28:54;24.90;99.90
19728;DHT22;10015;52.530;13.390;2022-09-01T08:31:27;25.10;99.90
19728;DHT22;10015;52.530;13.390;2022-09-01T08:33:53;25.30;99.90
19728;DHT22;10015;52.530;13.390;2022-09-01T08:36:21;25.40;99.90
19728;DHT22;10015;52.530;13.390;2022-09-01T08:38:48;25.50;99.90
19728;DHT22;10015;52.530;13.390;2022-09-01T08:44:39;25.70;99.90
19728;DHT22;10015;52.530;13.390;2022-09-01T08:47:15;25.70;99.90
19728;DHT22;10015;52.530;13.390;2022-09-01T08:49:44;25.70;99.90
19728;DHT22;10015;52.530;13.390;2022-09-01T08:52:36;25.40;99.90
19728;DHT22;10015;52.530;13.390;2022-09-01T08:55:30;25.00;99.90
19728;DHT22;10015;52.530;13.390;2022-09-01T08:57:59;25.10;99.90
19728;DHT22;10015;52.530;13.390;2022-09-01T09:00:30;25.20;99.90
19728;DHT22;10015;52.530;13.390;2022-09-01T09:03:31;25.20;99.90
19728;DHT22;10015;52.530;13.390;2022-09-01T09:06:25;24.70;99.90
19728;DHT22;10015;52.530;13.390;2022-09-01T09:08:59;24.70;99.90
19728;DHT22;10015;52.530;13.390;2022-09-01T09:17:10;24.90;99.90
19728;DHT22;10015;52.530;13.390;2022-09-01T09:19:40;25.10;99.90
19728;DHT22;10015;52.530;13.390;2022-09-01T09:22:10;25.00;99.90
19728;DHT22;10015;52.530;13.390;2022-09-01T09:24:53;25.00;99.90
19728;DHT22;10015;52.530;13.390;2022-09-01T09:27:32;25.10;99.90
19728;DHT22;10015;52.530;13.390;2022-09-01T09:30:01;24.80;99.90
19728;DHT22;10015;52.530;13.390;2022-09-01T09:35:35;25.00;99.90
19728;DHT22;10015;52.530;13.390;2022-09-01T09:41:02;24.50;99.90
19728;DHT22;10015;52.530;13.390;2022-09-01T09:43:37;24.50;99.90
19728;DHT22;10015;52.530;13.390;2022-09-01T09:46:26;24.50;99.90
19728;DHT22;10015;52.530;13.390;2022-09-01T09:51:40;24.10;99.90
19728;DHT22;10015;52.530;13.390;2022-09-01T09:56:42;24.00;99.90
19728;DHT22;10015;52.530;13.390;2022-09-01T09:59:27;24.10;99.90
19728;DHT22;10015;52.530;13.390;2022-09-01T10:02:19;24.20;99.90
19728;DHT22;10015;52.530;13.390;2022-09-01T10:04:48;24.10;99.90
19728;DHT22;10015;52.530;13.390;2022-09-01T10:07:31;24.10;99.90
19728;DHT22;10015;52.530;13.390;2022-09-01T10:10:00;24.20;99.90
19728;DHT22;10015;52.530;13.390;2022-09-01T10:12:28;24.20;99.90
19728;DHT22;10015;52.530;13.390;2022-09-01T10:15:16;24.50;99.90
19728;DHT22;10015;52.530;13.390;2022-09-01T10:17:42;24.80;99.90
19728;DHT22;10015;52.530;13.390;2022-09-01T10:20:16;24.80;99.90
19728;DHT22;10015;52.530;13.390;2022-09-01T10:22:43;24.80;99.90
19728;DHT22;10015;52.530;13.390;2022-09-01T10:25:15;24.80;99.90
19728;DHT22;10015;52.530;13.390;2022-09-01T10:27:45;24.60;99.90
19728;DHT22;10015;52.530;13.390;2022-09-01T10:30:14;24.50;99.90
19728;DHT22;10015;52.530;13.390;2022-09-01T10:32:44;24.70;99.90
19728;DHT22;10015;52.530;13.390;2022-09-01T10:35:17;24.30;99.90
19728;DHT22;10015;52.530;13.390;2022-09-01T10:37:46;23.90;99.90
19728;DHT22;10015;52.530;13.390;2022-09-01T10:42:44;23.60;99.90
19728;DHT22;10015;52.530;13.390;2022-09-01T10:45:31;23.50;99.90
19728;DHT22;10015;52.530;13.390;2022-09-01T10:50:46;24.00;99.90
19728;DHT22;10015;52.530;13.390;2022-09-01T10:59:10;23.80;99.90
19728;DHT22;10015;52.530;13.390;2022-09-01T11:04:23;23.30;99.90
19728;DHT22;10015;52.530;13.390;2022-09-01T11:07:29;23.30;99.90
19728;DHT22;10015;52.530;13.390;2022-09-01T11:15:54;22.60;99.90
19728;DHT22;10015;52.530;13.390;2022-09-01T11:18:29;22.60;99.90
19728;DHT22;10015;52.530;13.390;2022-09-01T11:21:29;22.80;99.90
19728;DHT22;10015;52.530;13.390;2022-09-01T11:27:06;23.10;99.90
19728;DHT22;10015;52.530;13.390;2022-09-01T11:29:58;23.10;99.90
19728;DHT22;10015;52.530;13.390;2022-09-01T11:32:36;22.90;99.90
19728;DHT22;10015;52.530;13.390;2022-09-01T11:35:17;22.70;99.90
19728;DHT22;10015;52.530;13.390;2022-09-01T11:37:49;22.60;99.90
19728;DHT22;10015;52.530;13.390;2022-09-01T11:40:40;22.50;99.90
19728;DHT22;10015;52.530;13.390;2022-09-01T11:43:11;22.70;99.90
19728;DHT22;10015;52.530;13.390;2022-09-01T11:45:52;23.10;99.90
19728;DHT22;10015;52.530;13.390;2022-09-01T11:48:23;23.40;99.90
19728;DHT22;10015;52.530;13.390;2022-09-01T11:50:58;23.80;99.90
19728;DHT22;10015;52.530;13.390;2022-09-01T11:53:25;23.90;99.90
19728;DHT22;10015;52.530;13.390;2022-09-01T11:55:53;23.80;99.90
19728;DHT22;10015;52.530;13.390;2022-09-01T12:00:55;23.60;99.90
19728;DHT22;10015;52.530;13.390;2022-09-01T12:03:26;23.50;99.90
19728;DHT22;10015;52.530;13.390;2022-09-01T12:05:56;23.40;99.90
19728;DHT22;10015;52.530;13.390;2022-09-01T12:08:25;23.30;99.90
19728;DHT22;10015;52.530;13.390;2022-09-01T12:13:34;23.10;99.90
19728;DHT22;10015;52.530;13.390;2022-09-01T12:16:03;22.70;99.90
19728;DHT22;10015;52.530;13.390;2022-09-01T12:18:43;22.60;99.90
19728;DHT22;10015;52.530;13.390;2022-09-01T12:21:19;22.40;99.90
19728;DHT22;10015;52.530;13.390;2022-09-01T12:23:46;22.40;99.90
19728;DHT22;10015;52.530;13.390;2022-09-01T12:26:15;22.60;99.90
19728;DHT22;10015;52.530;13.390;2022-09-01T12:28:43;22.70;99.90
19728;DHT22;10015;52.530;13.390;2022-09-01T12:31:18;22.50;99.90
19728;DHT22;10015;52.530;13.390;2022-09-01T12:33:46;22.40;99.90
19728;DHT22;10015;52.530;13.390;2022-09-01T12:36:31;22.40;99.90
19728;DHT22;10015;52.530;13.390;2022-09-01T12:41:44;22.40;99.90
19728;DHT22;10015;52.530;13.390;2022-09-01T12:52:49;22.20;99.90
19728;DHT22;10015;52.530;13.390;2022-09-01T12:55:24;22.10;99.90
19728;DHT22;10015;52.530;13.390;2022-09-01T12:57:54;22.20;99.90
19728;DHT22;10015;52.530;13.390;2022-09-01T13:00:25;22.40;99.90
19728;DHT22;10015;52.530;13.390;2022-09-01T13:05:50;22.90;99.90
19728;DHT22;10015;52.530;13.390;2022-09-01T13:08:19;23.00;99.90
19728;DHT22;10015;52.530;13.390;2022-09-01T13:10:49;23.20;99.90
19728;DHT22;10015;52.530;13.390;2022-09-01T13:13:16;23.40;99.90
19728;DHT22;10015;52.530;13.390;2022-09-01T13:15:45;23.50;99.90
19728;DHT22;10015;52.530;13.390;2022-09-01T13:18:19;23.40;99.90
19728;DHT22;10015;52.530;13.390;2022-09-01T13:20:47;23.40;99.90
19728;DHT22;10015;52.530;13.390;2022-09-01T13:23:13;23.50;99.90
19728;DHT22;10015;52.530;13.390;2022-09-01T13:25:39;23.30;99.90
19728;DHT22;10015;52.530;13.390;2022-09-01T13:28:07;23.30;99.90
19728;DHT22;10015;52.530;13.390;2022-09-01T13:30:34;23.10;99.90
19728;DHT22;10015;52.530;13.390;2022-09-01T13:33:00;23.00;99.90
19728;DHT22;10015;52.530;13.390;2022-09-01T13:35:29;22.90;99.90
19728;DHT22;10015;52.530;13.390;2022-09-01T13:37:55;22.80;99.90
19728;DHT22;10015;52.530;13.390;2022-09-01T13:40:21;22.60;99.90
19728;DHT22;10015;52.530;13.390;2022-09-01T13:42:49;22.50;99.90
19728;DHT22;10015;52.530;13.390;2022-09-01T13:45:19;22.40;99.90
19728;DHT22;10015;52.530;13.390;2022-09-01T13:47:47;22.40;99.90
19728;DHT22;10015;52.530;13.390;2022-09-01T13:50:16;22.30;99.90
19728;DHT22;10015;52.530;13.390;2022-09-01T13:52:49;22.30;99.90
19728;DHT22;10015;52.530;13.390;2022-09-01T13:55:27;22.30;99.90
19728;DHT22;10015;52.530;13.390;2022-09-01T13:57:53;22.30;99.90
19728;DHT22;10015;52.530;13.390;2022-09-01T14:00:23;22.30;99.90
19728;DHT22;10015;52.530;13.390;2022-09-01T14:02:52;22.30;99.90
19728;DHT22;10015;52.530;13.390;2022-09-01T14:05:22;22.30;99.90
19728;DHT22;10015;52.530;13.390;2022-09-01T14:07:48;22.40;99.90
19728;DHT22;10015;52.530;13.390;2022-09-01T14:10:15;22.40;99.90
19728;DHT22;10015;52.530;13.390;2022-09-01T14:12:42;22.50;99.90
19728;DHT22;10015;52.530;13.390;2022-09-01T14:15:10;22.60;99.90
19728;DHT22;10015;52.530;13.390;2022-09-01T14:17:37;22.60;99.90
19728;DHT22;10015;52.530;13.390;2022-09-01T14:20:07;22.60;99.90
19728;DHT22;10015;52.530;13.390;2022-09-01T14:22:34;22.60;99.90
19728;DHT22;10015;52.530;13.390;2022-09-01T14:25:00;22.60;99.90
19728;DHT22;10015;52.530;13.390;2022-09-01T14:27:26;22.60;99.90
19728;DHT22;10015;52.530;13.390;2022-09-01T14:29:54;22.60;99.90
19728;DHT22;10015;52.530;13.390;2022-09-01T14:32:20;22.70;99.90
19728;DHT22;10015;52.530;13.390;2022-09-01T14:34:49;22.70;99.90
19728;DHT22;10015;52.530;13.390;2022-09-01T14:37:15;22.70;99.90
19728;DHT22;10015;52.530;13.390;2022-09-01T14:39:41;22.70;99.90
19728;DHT22;10015;52.530;13.390;2022-09-01T14:42:07;22.70;99.90
19728;DHT22;10015;52.530;13.390;2022-09-01T14:44:37;22.50;99.90
19728;DHT22;10015;52.530;13.390;2022-09-01T14:47:04;22.40;99.90
19728;DHT22;10015;52.530;13.390;2022-09-01T14:49:32;22.30;99.90
19728;DHT22;10015;52.530;13.390;2022-09-01T14:52:06;22.30;99.90
19728;DHT22;10015;52.530;13.390;2022-09-01T14:54:34;22.30;99.90
19728;DHT22;10015;52.530;13.390;2022-09-01T14:57:01;22.40;99.90
19728;DHT22;10015;52.530;13.390;2022-09-01T14:59:27;22.50;99.90
19728;DHT22;10015;52.530;13.390;2022-09-01T15:01:53;22.50;99.90
19728;DHT22;10015;52.530;13.390;2022-09-01T15:04:21;22.50;99.90
19728;DHT22;10015;52.530;13.390;2022-09-01T15:06:47;22.50;99.90
19728;DHT22;10015;52.530;13.390;2022-09-01T15:09:13;22.60;99.90
19728;DHT22;10015;52.530;13.390;2022-09-01T15:11:41;22.50;99.90
19728;DHT22;10015;52.530;13.390;2022-09-01T15:14:07;22.40;99.90
19728;DHT22;10015;52.530;13.390;2022-09-01T15:16:35;22.40;99.90
19728;DHT22;10015;52.530;13.390;2022-09-01T15:19:06;22.40;99.90
19728;DHT22;10015;52.530;13.390;2022-09-01T15:21:34;22.50;99.90
19728;DHT22;10015;52.530;13.390;2022-09-01T15:24:01;22.70;99.90
19728;DHT22;10015;52.530;13.390;2022-09-01T15:26:28;22.80;99.90
19728;DHT22;10015;52.530;13.390;2022-09-01T15:28:57;22.90;99.90
19728;DHT22;10015;52.530;13.390;2022-09-01T15:31:25;22.80;99.90
19728;DHT22;10015;52.530;13.390;2022-09-01T15:33:55;22.80;99.90
19728;DHT22;10015;52.530;13.390;2022-09-01T15:36:24;22.80;99.90
19728;DHT22;10015;52.530;13.390;2022-09-01T15:38:50;22.70;99.90
19728;DHT22;10015;52.530;13.390;2022-09-01T15:41:27;22.60;99.90
19728;DHT22;10015;52.530;13.390;2022-09-01T15:43:55;22.40;99.90
19728;DHT22;10015;52.530;13.390;2022-09-01T15:46:21;22.30;99.90
19728;DHT22;10015;52.530;13.390;2022-09-01T15:48:48;22.30;99.90
19728;DHT22;10015;52.530;13.390;2022-09-01T15:53:55;22.30;99.90
19728;DHT22;10015;52.530;13.390;2022-09-01T15:56:21;22.40;99.90
19728;DHT22;10015;52.530;13.390;2022-09-01T15:58:49;22.40;99.90
19728;DHT22;10015;52.530;13.390;2022-09-01T16:01:16;22.40;99.90
19728;DHT22;10015;52.530;13.390;2022-09-01T16:03:42;22.30;99.90
19728;DHT22;10015;52.530;13.390;2022-09-01T16:06:08;22.30;99.90
19728;DHT22;10015;52.530;13.390;2022-09-01T16:08:35;22.10;99.90
19728;DHT22;10015;52.530;13.390;2022-09-01T16:11:05;22.10;99.90
19728;DHT22;10015;52.530;13.390;2022-09-01T16:13:35;22.00;99.90
19728;DHT22;10015;52.530;13.390;2022-09-01T16:16:13;22.10;99.90
19728;DHT22;10015;52.530;13.390;2022-09-01T16:18:55;22.10;99.90
19728;DHT22;10015;52.530;13.390;2022-09-01T16:24:45;22.10;99.90
19728;DHT22;10015;52.530;13.390;2022-09-01T16:27:17;22.00;99.90
19728;DHT22;10015;52.530;13.390;2022-09-01T16:32:10;22.10;99.90
19728;DHT22;10015;52.530;13.390;2022-09-01T16:34:36;22.20;99.90
19728;DHT22;10015;52.530;13.390;2022-09-01T16:39:49;22.20;99.90
19728;DHT22;10015;52.530;13.390;2022-09-01T16:45:00;22.20;99.90
19728;DHT22;10015;52.530;13.390;2022-09-01T16:47:38;22.30;99.90
19728;DHT22;10015;52.530;13.390;2022-09-01T16:50:34;22.30;99.90
19728;DHT22;10015;52.530;13.390;2022-09-01T16:58:45;22.40;99.90